Home > Products > Valid Products > TAF

000
FTUS41 KALY 301700
TAFPOU
TAF
KPOU 301724Z 3018/0118 09004KT P6SM SCT010 BKN025
      TEMPO 3018/3022 SCT025
     FM010000 VRB03KT P6SM BKN020
     FM010400 05003KT 5SM BR VCSH OVC015
     FM011500 01007KT P6SM VCSH OVC020=



000
FTUS41 KALY 301700
TAFALB
TAF
KALB 301724Z 3018/0118 15005KT P6SM SCT035
      TEMPO 3018/3020 BKN030
     FM010400 00000KT 4SM BR SCT003 BKN015
     FM010800 00000KT 1 1/2SM BR BKN003 OVC015
     FM011400 02005KT P6SM BKN025=



000
FTUS41 KALY 301700
TAFGFL
TAF
KGFL 301724Z 3018/0118 07004KT P6SM BKN035
     FM010300 VRB03KT 3SM BR SCT004 BKN020
     FM010600 00000KT 1SM BR OVC003
     FM011400 03005KT P6SM BKN025=



000
FTUS41 KALY 301100
TAFPOU
TAF
KPOU 301137Z 3012/0112 00000KT P6SM BKN015 BKN100
     FM301500 07004KT P6SM BKN025 BKN080
      TEMPO 3018/3022 SCT025 BKN080
     FM010000 VRB03KT P6SM BKN020
     FM010400 VRB02KT 5SM BR BKN020=



000
FTUS41 KALY 301100
TAFALB
TAF
KALB 301137Z 3012/0112 VRB03KT P6SM SCT002 OVC015
      TEMPO 3014/3016 OVC025
     FM301600 13005KT P6SM BKN030
      TEMPO 3018/3022 SCT030 SCT120
     FM010000 10003KT P6SM BKN030
     FM010500 VRB02KT 4SM BR BKN030=



000
FTUS41 KALY 301100
TAFGFL
TAF
KGFL 301137Z 3012/0112 VRB03KT P6SM OVC025
      TEMPO 3012/3015 OVC015
     FM301600 13005KT P6SM BKN030
      TEMPO 3018/3022 SCT030 SCT120
     FM010000 03003KT P6SM BKN030
     FM010500 VRB02KT 4SM BR BKN030=



000
FTUS41 KALY 300700 AAA
TAFGFL
TAF AMD
KGFL 300746Z 3008/0106 VRB02KT P6SM BCFG SCT001 OVC030
      TEMPO 3009/3012 1SM BR BKN001
     FM301200 12004KT P6SM BKN015 BKN020
     FM301600 13005KT P6SM BKN030
     FM010000 03003KT 6SM BR BKN025=



000
FTUS41 KALY 300500 CCA
TAFALB
TAF COR
KALB 300551Z 3006/0106 VRB02KT 6SM BR SCT001 SCT020 BKN200
      TEMPO 3006/3009 1/2SM FG BKN001 BKN020
     FM300900 VRB03KT 3SM BR SCT001 BKN015 BKN020
      TEMPO 3009/3012 1/2SM FG BKN001
     FM301200 12004KT P6SM BKN015 BKN020
     FM301600 13005KT P6SM BKN035
     FM010000 VRB03KT 6SM BR BKN025=



000
FTUS41 KALY 300500
TAFGFL
TAF
KGFL 300521Z 3006/0106 VRB02KT 3SM BR SCT001 SCT020 SCT200
      TEMPO 3006/3009 1SM BR BKN001 BKN020
     FM300900 VRB03KT 3SM BR SCT001 BKN012 BKN020
      TEMPO 3009/3012 1SM BR BKN001
     FM301200 12004KT P6SM BKN015 BKN020
     FM301600 13005KT P6SM BKN030
     FM010000 03003KT 6SM BR BKN025=



000
FTUS41 KALY 300500
TAFPOU
TAF
KPOU 300521Z 3006/0106 00000KT P6SM BKN100 OVC200
      TEMPO 3008/3012 3SM BR BKN010
     FM301500 07004KT P6SM BKN035 BKN080
     FM010000 03003KT 6SM BR BKN020=



000
FTUS41 KALY 300500
TAFALB
TAF
KALB 300521Z 3006/0106 VRB02KT 6SM BR SCT001 SCT020 BKN200
      TEMPO 3006/3009 1SM BR BKN001 BKN020
     FM300900 VRB03KT 3SM BR SCT001 BKN015 BKN020
      TEMPO 3009/3012 1SM BR BKN001
     FM301200 12004KT P6SM BKN015 BKN020
     FM301600 13005KT P6SM BKN035
     FM010000 VRB03KT 6SM BR BKN025=



000
FTUS41 KALY 300100 AAA
TAFGFL
TAF AMD
KGFL 300159Z 3002/3024 00000KT 3SM BR SCT002 BKN150
      TEMPO 3002/3006 1/2SM FG VV002
     FM300600 07003KT 3SM BR SCT015 OVC030
     FM300900 06004KT 4SM BR SCT008 OVC015
     FM301500 12004KT P6SM BKN025 OVC035=



000
FTUS41 KALY 292300
TAFPOU
TAF
KPOU 292337Z 3000/3024 00000KT P6SM OVC110
     FM300800 08003KT 5SM BR SCT015 OVC025
     FM301500 10004KT P6SM SCT030 OVC040=



000
FTUS41 KALY 292300
TAFALB
TAF
KALB 292337Z 3000/3024 VRB02KT P6SM BKN150 OVC250
     FM300400 10003KT P6SM SCT035 BKN150
     FM300700 11003KT P6SM SCT025 OVC035
     FM301000 12004KT 5SM BR SCT008 OVC015
     FM301500 12005KT P6SM SCT025 OVC035=



000
FTUS41 KALY 292300
TAFGFL
TAF
KGFL 292337Z 3000/3024 00000KT 4SM BR FEW150 BKN250
      TEMPO 3000/3003 1 1/2SM BR BKN003
     FM300300 VRB02KT 3SM BR SCT030 BKN150
     FM300600 07003KT 3SM BR SCT015 OVC030
     FM300900 06004KT 4SM BR SCT008 OVC015
     FM301500 12004KT P6SM BKN025 OVC035=



000
FTUS41 KALY 291700
TAFGFL
TAF
KGFL 291735Z 2918/3018 13003KT P6SM SCT120 BKN250
     FM300000 VRB02KT 6SM BR FEW150 BKN250
     FM300300 04004KT P6SM SCT040 BKN150
     FM300600 07007KT P6SM BKN035
     FM301000 10005KT P6SM SCT015 BKN025
     FM301500 12007KT P6SM VCSH BKN025 OVC035=



000
FTUS41 KALY 291700
TAFPOU
TAF
KPOU 291735Z 2918/3018 VRB03KT P6SM BKN150 OVC250
     FM300800 08005KT P6SM SCT015 BKN025
     FM301400 10007KT P6SM VCSH BKN025 OVC035=



000
FTUS41 KALY 291700
TAFALB
TAF
KALB 291735Z 2918/3018 VRB03KT P6SM BKN150 OVC250
     FM300400 10005KT P6SM SCT040 BKN120
     FM301000 14007KT P6SM SCT015 BKN025
     FM301500 15009KT P6SM VCSH BKN025 OVC035=



000
FTUS41 KALY 291100
TAFGFL
TAF
KGFL 291129Z 2912/3012 00000KT P6SM BKN200
     FM291600 VRB06KT P6SM BKN120 BKN200
     FM300200 08003KT 6SM BR BKN020 OVC030=



000
FTUS41 KALY 291100
TAFPOU
TAF
KPOU 291129Z 2912/3012 VRB03KT P6SM BKN200
     FM292100 VRB03KT P6SM SCT050 BKN120 BKN200
     FM300200 VRB02KT 6SM BR SCT030 BKN120 BKN200
     FM300500 VRB02KT 5SM BR BKN020 BKN120=



000
FTUS41 KALY 291100
TAFALB
TAF
KALB 291129Z 2912/3012 00000KT P6SM MIFG SCT150 BKN250
     FM291300 VRB03KT P6SM BKN200
     FM291600 VRB05KT P6SM BKN120 BKN200
     FM300300 12003KT 6SM BR BKN020 OVC030=



000
FTUS41 KALY 291000 AAA
TAFGFL
TAF AMD
KGFL 291040Z 2911/3006 00000KT 3SM BR SCT002 BKN200
      TEMPO 2911/2914 1/4SM FG BKN002
     FM291430 VRB03KT P6SM SCT002 BKN200
     FM291600 VRB06KT P6SM BKN120 BKN200
     FM300200 08003KT 6SM BR BKN020 OVC030=



000
FTUS41 KALY 290600 CCA
TAFGFL
TAF COR
KGFL 290600Z 2906/3006 00000KT 3SM BR SCT002 BKN250
      TEMPO 2906/2910 1/2SM FG BKN002
     FM291000 00000KT 1/2SM FG VV002
     FM291430 VRB03KT P6SM SCT002 BKN200
     FM291600 VRB06KT P6SM BKN120 BKN200
     FM300200 08003KT 6SM BR BKN020 OVC030=



000
FTUS41 KALY 290500
TAFGFL
TAF
KGFL 290520Z 2906/3006 00000KT 1 1/2SM BR SCT002 BKN250
      TEMPO 2906/2910 1/2SM FG BKN002
     FM291000 00000KT 1/2SM FG VV002
     FM291430 VRB03KT P6SM SCT002 BKN200
     FM291600 VRB06KT P6SM BKN120 BKN200
     FM300200 08003KT 6SM BR BKN020 OVC030=



000
FTUS41 KALY 290500
TAFALB
TAF
KALB 290520Z 2906/3006 00000KT P6SM BKN250
      TEMPO 2907/2911 3SM BR SCT003
     FM291430 VRB03KT P6SM FEW003 BKN200
     FM291600 VRB05KT P6SM BKN120 BKN200
     FM300300 12003KT 6SM BR BKN020 OVC030=



000
FTUS41 KALY 290500
TAFPOU
TAF
KPOU 290520Z 2906/3006 00000KT P6SM BKN200
      TEMPO 2907/2911 3SM BR SCT003
     FM291400 VRB03KT P6SM BKN200
     FM292100 VRB03KT P6SM SCT050 BKN120 BKN200
     FM300200 VRB02KT 6SM BR SCT030 BKN120 BKN200=



000
FTUS41 KALY 282300
TAFALB
TAF
KALB 282320Z 2900/2924 00000KT P6SM BKN250
     FM290900 00000KT 3SM BR SCT008 BKN250
     FM291300 VRB05KT P6SM SCT050 BKN200=



000
FTUS41 KALY 282300
TAFPOU
TAF
KPOU 282320Z 2900/2924 00000KT P6SM SCT250
     FM290600 00000KT 5SM BR BKN250
     FM291400 VRB03KT P6SM SCT050 BKN200=



000
FTUS41 KALY 282300
TAFGFL
TAF
KGFL 282320Z 2900/2924 19002KT P6SM SCT250
      TEMPO 2900/2903 2SM BR BKN008
     FM290300 00000KT 3SM BR SCT008
      TEMPO 2903/2906 1SM BR BKN005
     FM290600 00000KT 1SM BR BKN002
     FM291400 VRB03KT P6SM SCT050 BKN200=



000
FTUS41 KALY 281700
TAFGFL
TAF
KGFL 281720Z 2818/2918 19006KT P6SM SCT250
     FM290000 00000KT P6SM SCT250
     FM290200 00000KT 2SM BR BKN002
     FM290500 00000KT 1/2SM FG VV001
     FM291400 VRB03KT P6SM BKN200=



000
FTUS41 KALY 281700
TAFPOU
TAF
KPOU 281720Z 2818/2918 VRB02KT P6SM SCT250
     FM290000 00000KT P6SM SCT250
     FM290900 00000KT 5SM BR BKN250
      TEMPO 2910/2913 2SM BR BKN002
     FM291400 VRB03KT P6SM BKN200=



000
FTUS41 KALY 281700
TAFALB
TAF
KALB 281720Z 2818/2918 25005KT P6SM SCT250
     FM290000 00000KT P6SM SCT250
     FM290900 00000KT 5SM BR BKN250
     FM291300 VRB03KT P6SM BKN200=



000
FTUS41 KALY 281500 AAC
TAFGFL
TAF AMD
KGFL 281501Z 2815/2912 00000KT 4SM BR OVC002
      TEMPO 2815/2816 6SM BR SCT002
     FM281600 19003KT P6SM SKC
     FM281900 19006KT P6SM SCT250
     FM290000 00000KT P6SM BKN250
     FM290600 00000KT 2SM BR BKN250=



000
FTUS41 KALY 281400 AAB
TAFGFL
TAF AMD
KGFL 281405Z 2814/2912 00000KT 2SM BR BKN002
      TEMPO 2814/2815 1/2SM FG OVC002
     FM281500 19003KT P6SM SKC
     FM281900 19006KT P6SM SCT250
     FM290000 00000KT P6SM BKN250
     FM290600 00000KT 2SM BR BKN250=



000
FTUS41 KALY 281300 AAA
TAFGFL
TAF AMD
KGFL 281310Z 2813/2912 00000KT 1/4SM FG VV002
      TEMPO 2813/2814 2SM BR BKN002
     FM281400 00000KT 5SM BR SCT002
      TEMPO 2814/2815 2SM BR BKN002
     FM281500 19003KT P6SM SKC
     FM281900 19006KT P6SM SCT250
     FM290000 00000KT P6SM BKN250
     FM290600 00000KT 2SM BR BKN250=



000
FTUS41 KALY 281300 AAA
TAFPOU
TAF AMD
KPOU 281308Z 2813/2912 00000KT 3/4SM BR OVC003
      TEMPO 2813/2814 5SM BR SCT003
     FM281400 21003KT P6SM SKC
     FM281800 23004KT P6SM SCT250
     FM290000 00000KT P6SM BKN250
     FM290900 00000KT 5SM BR BKN250=



000
FTUS41 KALY 281100 RRA
TAFPOU
TAF
KPOU 281157Z 2812/2912 00000KT 6SM BR SCT002
      TEMPO 2812/2813 2SM BR BKN002
     FM281300 21003KT P6SM SKC
     FM281800 23004KT P6SM SCT250
     FM290000 00000KT P6SM BKN250
     FM290900 00000KT 5SM BR BKN250=



000
FTUS41 KALY 281100 RRA
TAFALB
TAF
KALB 281157Z 2812/2912 00000KT 6SM BR FEW001
     FM281300 VRB03KT P6SM SKC
     FM281800 27006KT P6SM SCT250
     FM290000 00000KT P6SM BKN250
     FM290900 00000KT 5SM BR BKN250=



000
FTUS41 KALY 281100 RRA
TAFGFL
TAF
KGFL 281157Z 2812/2912 00000KT 1SM BR VV002
      TEMPO 2812/2813 1/4SM FG VV001
     FM281300 00000KT 5SM BR SCT002
      TEMPO 2813/2814 2SM BR BKN002
     FM281400 19003KT P6SM SKC
     FM281900 19006KT P6SM SCT250
     FM290000 00000KT P6SM BKN250
     FM290600 00000KT 2SM BR BKN250=



000
FTUS41 KALY 280900 AAA
TAFGFL
TAF AMD
KGFL 280914Z 2809/2906 00000KT 1SM BR VV002
      TEMPO 2809/2813 1/4SM FG VV001
     FM281300 00000KT 3SM BR SCT002
     FM281400 19003KT P6SM SKC
     FM281900 19006KT P6SM SCT250
     FM290000 00000KT P6SM BKN250=



000
FTUS41 KALY 280900 AAA
TAFPOU
TAF AMD
KPOU 280913Z 2809/2906 00000KT P6SM SKC
      TEMPO 2809/2813 3/4SM BR VV002
     FM281300 21003KT P6SM SKC
     FM281800 23004KT P6SM SCT250
     FM290000 00000KT P6SM BKN250=



000
FTUS41 KALY 280900 AAA
TAFALB
TAF AMD
KALB 280912Z 2809/2906 00000KT P6SM BCFG FEW003
      TEMPO 2809/2810 2SM BR
     FM281000 00000KT 4SM BR SCT003
      TEMPO 2810/2812 3/4SM BR VV003
     FM281300 VRB03KT P6SM SKC
     FM281800 27006KT P6SM SCT250
     FM290000 00000KT P6SM BKN250=



000
FTUS41 KALY 280500 CCA
TAFPOU
TAF COR
KPOU 280559Z 2806/2906 00000KT 4SM BR SKC
      TEMPO 2806/2810 2SM BR
     FM281000 00000KT 2SM BR VV002
     FM281300 21003KT P6SM SKC
     FM281800 23004KT P6SM SCT250
     FM290000 00000KT P6SM BKN250=



000
FTUS41 KALY 280500
TAFGFL
TAF
KGFL 280523Z 2806/2906 00000KT 2SM BR SKC
      TEMPO 2806/2808 1/2SM FG VV003
     FM280800 00000KT 1/2SM FG VV002
     FM281300 00000KT 3SM BR SCT002
     FM281400 19003KT P6SM SKC
     FM281900 19006KT P6SM SCT250
     FM290000 00000KT P6SM BKN250=



000
FTUS41 KALY 280500
TAFPOU
TAF
KPOU 280523Z 2806/2906 00000KT P6SM MIFG SKC
      TEMPO 2808/2810 4SM BR
     FM281000 00000KT 2SM BR VV002
     FM281300 21003KT P6SM SKC
     FM281800 23004KT P6SM SCT250
     FM290000 00000KT P6SM BKN250=



000
FTUS41 KALY 280500
TAFALB
TAF
KALB 280523Z 2806/2906 00000KT P6SM MIFG SKC
      TEMPO 2806/2808 2SM BR VV002
     FM280800 00000KT 2SM BR SKC
      TEMPO 2808/2810 1/2SM FG VV002
     FM281300 VRB03KT P6SM SKC
     FM281800 27006KT P6SM SCT250
     FM290000 00000KT P6SM BKN250=



000
FTUS41 KALY 280400 AAA
TAFALB
TAF AMD
KALB 280449Z 2805/2824 00000KT P6SM SKC
      TEMPO 2805/2808 2SM BR
     FM280800 00000KT 2SM BR SKC
      TEMPO 2808/2810 1/2SM FG VV002
     FM281300 24005KT P6SM SKC=



000
FTUS41 KALY 272300
TAFALB
TAF
KALB 272320Z 2800/2824 00000KT P6SM SKC
     FM280600 00000KT P6SM MIFG SKC
     FM280900 00000KT 2SM BR BKN008
     FM281300 24005KT P6SM SKC=



000
FTUS41 KALY 272300
TAFGFL
TAF
KGFL 272320Z 2800/2824 00000KT P6SM SKC
      TEMPO 2800/2803 2SM BR BKN008
     FM280300 00000KT 3SM BR SCT002
      TEMPO 2803/2806 1/2SM FG VV002
     FM280600 00000KT 1/2SM FG VV002
     FM281300 00000KT 3SM BR SCT002
     FM281400 19005KT P6SM SKC=



000
FTUS41 KALY 272300
TAFPOU
TAF
KPOU 272320Z 2800/2824 00000KT P6SM SKC
     FM280600 00000KT P6SM MIFG SCT008
     FM281000 00000KT 2SM BR BKN008
     FM281300 20005KT P6SM SKC=



    US Dept of Commerce
    National Oceanic and Atmospheric Administration
    National Weather Service
    1325 East West Highway
    Silver Spring, MD 20910
    Page Author: NWS Internet Services Team
Disclaimer
Information Quality
Credits
Glossary
Privacy Policy
Freedom of Information Act (FOIA)
About Us
Career Opportunities